createdAt,value
2023-05-09T00:03:53.774Z,11.80
2023-05-09T00:08:56.668Z,10.40
2023-05-09T00:13:59.453Z,10.80
2023-05-09T00:19:03.536Z,12.90
2023-05-09T00:24:06.648Z,13.90
2023-05-09T00:29:09.443Z,16.40
2023-05-09T00:34:12.291Z,18.70
2023-05-09T00:39:15.197Z,18.30
2023-05-09T00:44:18.156Z,18.20
2023-05-09T00:49:20.971Z,20.40
2023-05-09T00:54:23.842Z,16.70
2023-05-09T00:59:27.475Z,13.70
2023-05-09T01:04:30.562Z,13.20
2023-05-09T01:09:58.436Z,14.20
2023-05-09T01:15:08.851Z,12.50
2023-05-09T01:20:47.607Z,12.20
2023-05-09T01:26:04.625Z,12.80
2023-05-09T01:31:09.705Z,11.90
2023-05-09T01:36:18.138Z,11.30
2023-05-09T01:41:23.439Z,11.50
2023-05-09T01:46:27.653Z,12.60
2023-05-09T01:51:31.840Z,12.10
2023-05-09T01:56:36.532Z,10.00
2023-05-09T02:01:39.429Z,17.00
2023-05-09T02:06:44.846Z,14.30
2023-05-09T02:11:47.805Z,10.80
2023-05-09T02:16:51.491Z,10.10
2023-05-09T02:21:54.333Z,10.40
2023-05-09T02:26:57.676Z,10.50
2023-05-09T02:37:05.270Z,10.10
2023-05-09T02:42:18.746Z,9.30
2023-05-09T02:52:24.918Z,10.40
2023-05-09T02:57:27.819Z,12.60
2023-05-09T03:02:31.042Z,11.50
2023-05-09T03:12:38.725Z,11.20
2023-05-09T03:17:41.872Z,9.70
2023-05-09T03:22:44.787Z,10.90
2023-05-09T03:27:47.572Z,10.80
2023-05-09T03:32:50.465Z,9.30
2023-05-09T03:37:53.324Z,8.20
2023-05-09T03:42:56.196Z,11.80
2023-05-09T03:47:59.427Z,16.80
2023-05-09T03:58:05.391Z,10.80
2023-05-09T04:03:08.437Z,12.20
2023-05-09T04:08:11.570Z,11.10
2023-05-09T04:13:14.424Z,10.60
2023-05-09T04:18:17.369Z,11.10
2023-05-09T04:23:20.180Z,11.00
2023-05-09T04:28:23.106Z,10.50
2023-05-09T04:33:25.990Z,9.90
2023-05-09T04:38:28.776Z,9.30
2023-05-09T04:43:32.724Z,10.10
2023-05-09T04:48:35.976Z,9.40
2023-05-09T04:53:38.968Z,11.00
2023-05-09T04:58:41.792Z,11.20
2023-05-09T05:03:46.309Z,11.90
2023-05-09T05:08:49.136Z,9.90
2023-05-09T05:13:52.069Z,10.20
2023-05-09T05:18:54.900Z,9.50
2023-05-09T05:23:57.700Z,9.40
2023-05-09T05:29:00.978Z,9.60
2023-05-09T05:39:06.561Z,9.20
2023-05-09T05:44:09.546Z,9.60
2023-05-09T05:49:12.395Z,10.60
2023-05-09T05:54:15.252Z,8.60
2023-05-09T05:59:18.070Z,9.20
2023-05-09T06:04:21.440Z,9.80
2023-05-09T06:09:24.310Z,10.10
2023-05-09T06:14:27.212Z,9.60
2023-05-09T06:19:30.049Z,8.70
2023-05-09T06:24:36.212Z,8.20
2023-05-09T06:29:39.512Z,8.00
2023-05-09T06:39:46.274Z,7.90
2023-05-09T06:44:49.187Z,7.80
2023-05-09T06:54:55.150Z,9.40
2023-05-09T07:05:00.813Z,8.30
2023-05-09T07:15:22.941Z,7.80
2023-05-09T07:20:36.400Z,7.40
2023-05-09T07:25:39.746Z,6.70
2023-05-09T07:30:43.788Z,7.20
2023-05-09T07:35:46.752Z,6.60
2023-05-09T07:45:52.311Z,6.50
2023-05-09T07:55:59.594Z,6.20
2023-05-09T08:01:02.711Z,5.10
2023-05-09T08:11:08.412Z,6.00
2023-05-09T08:21:14.618Z,4.60
2023-05-09T08:31:20.357Z,5.20
2023-05-09T08:36:23.484Z,4.90
2023-05-09T08:41:29.580Z,5.90
2023-05-09T08:46:37.164Z,7.40
2023-05-09T08:51:41.051Z,5.10
2023-05-09T08:56:43.941Z,4.80
2023-05-09T09:01:48.025Z,4.60
2023-05-09T09:06:52.204Z,5.20
2023-05-09T09:11:56.983Z,4.70
2023-05-09T09:17:01.196Z,5.40
2023-05-09T09:22:05.076Z,5.50
2023-05-09T09:27:08.525Z,5.20
2023-05-09T09:32:11.749Z,5.70
2023-05-09T09:37:24.311Z,5.50
2023-05-09T09:42:27.145Z,6.30
2023-05-09T09:47:33.274Z,6.50
2023-05-09T09:52:36.730Z,4.30
2023-05-09T09:57:41.808Z,4.20
2023-05-09T10:02:54.930Z,5.00
2023-05-09T10:07:59.419Z,4.80
2023-05-09T10:13:09.678Z,4.10
2023-05-09T10:18:18.502Z,4.00
2023-05-09T10:23:23.612Z,4.10
2023-05-09T10:28:32.097Z,4.20
2023-05-09T10:33:42.749Z,3.80
2023-05-09T10:38:47.387Z,4.00
2023-05-09T10:43:50.425Z,3.60
2023-05-09T10:48:55.225Z,4.10
2023-05-09T10:53:58.851Z,4.10
2023-05-09T10:59:02.347Z,3.80
2023-05-09T11:04:13.152Z,3.60
2023-05-09T11:09:27.108Z,3.50
2023-05-09T11:14:42.553Z,3.90
2023-05-09T11:19:45.574Z,3.60
2023-05-09T11:24:50.977Z,3.70
2023-05-09T11:29:59.621Z,3.80
2023-05-09T11:35:17.889Z,3.80
2023-05-09T11:40:22.960Z,4.10
2023-05-09T11:45:28.691Z,3.80
2023-05-09T11:50:31.697Z,3.50
2023-05-09T11:55:38.190Z,3.80
2023-05-09T12:00:47.707Z,3.80
2023-05-09T12:05:51.098Z,3.70
2023-05-09T12:10:54.071Z,4.00
2023-05-09T12:16:02.691Z,4.20
2023-05-09T12:21:07.228Z,3.50
2023-05-09T12:26:11.077Z,3.90
2023-05-09T12:31:14.706Z,4.20
2023-05-09T12:36:18.840Z,4.50
2023-05-09T12:46:33.837Z,4.80
2023-05-09T12:51:37.917Z,4.30
2023-05-09T12:56:41.027Z,3.90
2023-05-09T13:01:44.520Z,4.30
2023-05-09T13:06:52.384Z,3.90
2023-05-09T13:11:55.468Z,4.10
2023-05-09T13:16:58.456Z,4.40
2023-05-09T13:22:02.097Z,4.10
2023-05-09T13:27:05.803Z,4.50
2023-05-09T13:32:08.895Z,4.80
2023-05-09T13:37:11.770Z,4.20
2023-05-09T13:42:14.600Z,4.00
2023-05-09T13:47:17.467Z,4.40
2023-05-09T13:52:20.314Z,4.10
2023-05-09T13:57:23.154Z,4.00
2023-05-09T14:02:26.133Z,4.00
2023-05-09T14:07:29.370Z,4.70
2023-05-09T14:12:32.796Z,4.00
2023-05-09T14:17:35.888Z,3.80
2023-05-09T14:22:38.806Z,4.50
2023-05-09T14:27:42.096Z,4.10
2023-05-09T14:32:45.498Z,4.20
2023-05-09T14:37:48.377Z,4.00
2023-05-09T14:42:51.333Z,4.10
2023-05-09T14:47:54.251Z,4.30
2023-05-09T14:52:57.415Z,4.50
2023-05-09T14:58:00.255Z,3.70
2023-05-09T15:03:03.267Z,4.60
2023-05-09T15:08:07.133Z,4.10
2023-05-09T15:13:11.473Z,4.20
2023-05-09T15:18:16.561Z,4.30
2023-05-09T15:23:19.460Z,4.10
2023-05-09T15:28:22.459Z,4.10
2023-05-09T15:33:25.583Z,3.80
2023-05-09T15:38:28.643Z,4.10
2023-05-09T15:43:31.509Z,4.00
2023-05-09T15:48:34.307Z,4.00
2023-05-09T15:53:37.195Z,4.00
2023-05-09T15:58:40.478Z,4.30
2023-05-09T16:03:43.522Z,4.30
2023-05-09T16:08:46.597Z,4.20
2023-05-09T16:13:49.528Z,3.90
2023-05-09T16:18:52.720Z,4.30
2023-05-09T16:23:58.002Z,4.00
2023-05-09T16:29:02.150Z,4.10
2023-05-09T16:34:05.020Z,4.30
2023-05-09T16:39:07.852Z,4.30
2023-05-09T16:44:10.876Z,5.20
2023-05-09T16:49:17.743Z,4.40
2023-05-09T16:54:21.517Z,5.10
2023-05-09T16:59:24.343Z,4.90
2023-05-09T17:04:27.726Z,4.90
2023-05-09T17:09:30.622Z,4.60
2023-05-09T17:14:33.479Z,4.80
2023-05-09T17:19:36.823Z,9.30
2023-05-09T17:24:39.663Z,3.90
2023-05-09T17:29:42.527Z,4.10
2023-05-09T17:34:45.329Z,4.10
2023-05-09T17:39:48.156Z,3.80
2023-05-09T17:44:51.096Z,4.50
2023-05-09T17:49:53.909Z,4.30
2023-05-09T17:54:56.811Z,3.80
2023-05-09T18:00:00.499Z,3.60
2023-05-09T18:05:03.424Z,3.70
2023-05-09T18:10:07.955Z,4.60
2023-05-09T18:15:11.201Z,4.30
2023-05-09T18:20:14.311Z,4.20
2023-05-09T18:25:17.437Z,4.50
2023-05-09T18:35:25.028Z,8.20
2023-05-09T18:40:28.540Z,5.20
2023-05-09T18:45:31.330Z,5.00
2023-05-09T18:50:34.305Z,7.90
2023-05-09T19:00:40.266Z,6.20
2023-05-09T19:05:44.087Z,6.40
2023-05-09T19:10:46.895Z,6.50
2023-05-09T19:15:50.285Z,5.90
2023-05-09T19:20:53.116Z,6.50
2023-05-09T19:25:55.988Z,6.40
2023-05-09T19:30:59.146Z,5.10
2023-05-09T19:41:04.806Z,11.00
2023-05-09T19:46:07.756Z,18.60
2023-05-09T19:51:12.576Z,20.80
2023-05-09T19:56:15.752Z,17.80
2023-05-09T20:01:19.536Z,16.10
2023-05-09T20:11:42.893Z,9.50
2023-05-09T20:16:45.798Z,12.10
2023-05-09T20:21:48.625Z,10.50
2023-05-09T20:26:51.557Z,12.90
2023-05-09T20:31:54.373Z,11.20
2023-05-09T20:36:57.095Z,9.30
2023-05-09T20:42:02.529Z,8.30
2023-05-09T20:47:05.975Z,8.10
2023-05-09T20:52:08.783Z,8.70
2023-05-09T20:57:11.523Z,11.90
2023-05-09T21:02:14.333Z,13.20
2023-05-09T21:07:20.058Z,16.80
2023-05-09T21:12:23.135Z,20.50
2023-05-09T21:17:26.232Z,13.40
2023-05-09T21:22:29.221Z,15.00
2023-05-09T21:27:32.007Z,19.90
2023-05-09T21:32:34.836Z,13.50
2023-05-09T21:37:37.672Z,16.90
2023-05-09T21:42:41.238Z,18.70
2023-05-09T21:47:44.077Z,20.10
2023-05-09T21:52:47.037Z,12.90
2023-05-09T21:57:49.802Z,14.60
2023-05-09T22:02:52.664Z,14.30
2023-05-09T22:07:55.660Z,13.80
2023-05-09T22:12:58.477Z,13.20
2023-05-09T22:18:01.464Z,11.90
2023-05-09T22:23:04.350Z,12.10
2023-05-09T22:28:07.206Z,11.10
2023-05-09T22:33:10.014Z,9.50
2023-05-09T22:38:12.839Z,9.20
2023-05-09T22:43:15.671Z,12.40
2023-05-09T22:48:18.513Z,14.50
2023-05-09T22:53:21.342Z,11.50
2023-05-09T22:58:24.222Z,10.30
2023-05-09T23:03:27.242Z,8.60
2023-05-09T23:08:31.985Z,10.70
2023-05-09T23:13:34.802Z,10.30
2023-05-09T23:18:37.642Z,10.40
2023-05-09T23:23:40.607Z,9.30
2023-05-09T23:28:43.399Z,9.80
2023-05-09T23:33:46.338Z,10.40
2023-05-09T23:38:49.175Z,10.50
2023-05-09T23:43:52.110Z,10.00
2023-05-09T23:48:55.754Z,8.00
2023-05-09T23:53:58.585Z,8.50
2023-05-09T23:59:01.413Z,9.30
